createdAt,value
2019-01-25T00:00:21.060Z,22.05
2019-01-25T00:02:47.753Z,22.06
2019-01-25T00:05:14.397Z,22.05
2019-01-25T00:07:41.050Z,22.06
2019-01-25T00:10:07.709Z,22.04
2019-01-25T00:12:34.349Z,22.01
2019-01-25T00:15:01.009Z,21.98
2019-01-25T00:17:27.659Z,21.97
2019-01-25T00:19:55.800Z,21.96
2019-01-25T00:22:22.293Z,21.96
2019-01-25T00:24:47.735Z,21.96
2019-01-25T00:27:14.379Z,21.92
2019-01-25T00:29:41.019Z,21.90
2019-01-25T00:32:07.700Z,21.89
2019-01-25T00:34:34.337Z,21.87
2019-01-25T00:37:01.000Z,21.83
2019-01-25T00:39:27.689Z,21.83
2019-01-25T00:41:54.329Z,21.81
2019-01-25T00:44:20.981Z,21.81
2019-01-25T00:46:47.620Z,21.77
2019-01-25T00:49:14.272Z,21.79
2019-01-25T00:51:40.924Z,21.72
2019-01-25T00:54:07.587Z,21.75
2019-01-25T00:56:34.241Z,21.75
2019-01-25T00:59:00.927Z,21.73
2019-01-25T01:01:27.581Z,21.70
2019-01-25T01:03:54.253Z,21.67
2019-01-25T01:06:20.913Z,21.71
2019-01-25T01:08:47.592Z,21.68
2019-01-25T01:11:14.238Z,21.66
2019-01-25T01:13:40.904Z,21.63
2019-01-25T01:16:07.542Z,21.67
2019-01-25T01:18:34.250Z,21.64
2019-01-25T01:21:00.906Z,21.64
2019-01-25T01:23:27.551Z,21.59
2019-01-25T01:25:54.203Z,21.61
2019-01-25T01:28:20.863Z,21.62
2019-01-25T01:30:47.509Z,21.59
2019-01-25T01:33:14.171Z,21.57
2019-01-25T01:35:40.814Z,21.62
2019-01-25T01:38:07.457Z,21.55
2019-01-25T01:40:34.107Z,21.54
2019-01-25T01:43:00.755Z,21.58
2019-01-25T01:45:27.439Z,21.53
2019-01-25T01:47:54.081Z,21.52
2019-01-25T01:50:20.722Z,21.48
2019-01-25T01:52:47.407Z,21.49
2019-01-25T01:55:14.082Z,21.49
2019-01-25T01:57:40.754Z,21.47
2019-01-25T02:00:07.393Z,21.48
2019-01-25T02:02:34.042Z,21.50
2019-01-25T02:05:00.736Z,21.46
2019-01-25T02:07:27.383Z,21.48
2019-01-25T02:09:54.047Z,21.45
2019-01-25T02:12:20.787Z,21.46
2019-01-25T02:14:47.463Z,21.42
2019-01-25T02:17:14.112Z,21.42
2019-01-25T02:19:41.384Z,21.43
2019-01-25T02:22:08.027Z,21.40
2019-01-25T02:24:34.673Z,21.43
2019-01-25T02:27:01.351Z,21.37
2019-01-25T02:29:27.983Z,21.37
2019-01-25T02:31:54.638Z,21.36
2019-01-25T02:34:21.276Z,21.35
2019-01-25T02:36:47.980Z,21.33
2019-01-25T02:39:14.624Z,21.34
2019-01-25T02:41:41.281Z,21.29
2019-01-25T02:44:07.934Z,21.31
2019-01-25T02:46:34.579Z,21.33
2019-01-25T02:49:01.222Z,21.40
2019-01-25T02:51:27.913Z,21.43
2019-01-25T02:53:54.561Z,21.42
2019-01-25T02:56:21.202Z,21.41
2019-01-25T02:58:47.838Z,21.50
2019-01-25T03:01:14.490Z,21.41
2019-01-25T03:03:41.130Z,21.34
2019-01-25T03:06:07.772Z,21.31
2019-01-25T03:08:34.524Z,21.23
2019-01-25T03:11:02.186Z,21.27
2019-01-25T03:13:28.829Z,21.20
2019-01-25T03:15:55.515Z,21.16
2019-01-25T03:18:22.208Z,21.15
2019-01-25T03:20:48.850Z,21.12
2019-01-25T03:23:15.525Z,21.10
2019-01-25T03:25:42.158Z,21.10
2019-01-25T03:28:08.802Z,21.08
2019-01-25T03:30:35.450Z,21.07
2019-01-25T03:33:02.091Z,21.07
2019-01-25T03:35:28.780Z,21.09
2019-01-25T03:37:55.425Z,21.04
2019-01-25T03:40:22.077Z,21.05
2019-01-25T03:42:48.716Z,21.05
2019-01-25T03:45:15.407Z,21.04
2019-01-25T03:47:42.043Z,21.00
2019-01-25T03:50:08.693Z,20.96
2019-01-25T03:52:35.329Z,21.00
2019-01-25T03:55:01.977Z,21.05
2019-01-25T03:57:28.625Z,21.06
2019-01-25T03:59:55.268Z,21.02
2019-01-25T04:02:21.918Z,21.03
2019-01-25T04:04:48.567Z,21.07
2019-01-25T04:07:15.205Z,21.04
2019-01-25T04:09:42.043Z,21.02
2019-01-25T04:12:08.686Z,21.26
2019-01-25T04:14:35.367Z,21.86
2019-01-25T04:17:02.022Z,22.00
2019-01-25T04:19:28.660Z,22.14
2019-01-25T04:21:55.309Z,22.12
2019-01-25T04:24:21.989Z,22.10
2019-01-25T04:26:48.650Z,22.09
2019-01-25T04:29:15.307Z,21.93
2019-01-25T04:31:41.954Z,21.95
2019-01-25T04:34:08.602Z,21.67
2019-01-25T04:36:35.238Z,21.20
2019-01-25T04:39:01.923Z,21.01
2019-01-25T04:41:28.595Z,20.90
2019-01-25T04:43:58.148Z,20.79
2019-01-25T04:46:24.813Z,20.74
2019-01-25T04:48:51.457Z,20.70
2019-01-25T04:51:18.093Z,20.67
2019-01-25T04:53:44.737Z,20.60
2019-01-25T04:56:11.376Z,20.73
2019-01-25T04:58:38.076Z,20.47
2019-01-25T05:01:04.725Z,20.76
2019-01-25T05:03:31.375Z,20.89
2019-01-25T05:05:58.022Z,20.99
2019-01-25T05:08:24.700Z,20.95
2019-01-25T05:10:51.344Z,21.06
2019-01-25T05:13:18.130Z,21.11
2019-01-25T05:15:44.774Z,21.05
2019-01-25T05:18:11.412Z,21.10
2019-01-25T05:20:38.074Z,21.09
2019-01-25T05:23:04.715Z,21.12
2019-01-25T05:25:31.410Z,21.22
2019-01-25T05:27:58.047Z,21.21
2019-01-25T05:30:24.681Z,21.25
2019-01-25T05:32:51.333Z,21.29
2019-01-25T05:35:18.019Z,21.37
2019-01-25T05:37:44.674Z,21.28
2019-01-25T05:40:11.321Z,21.49
2019-01-25T05:42:37.971Z,21.69
2019-01-25T05:45:04.623Z,21.82
2019-01-25T05:47:31.295Z,21.84
2019-01-25T05:49:57.928Z,21.83
2019-01-25T05:52:24.585Z,21.72
2019-01-25T05:54:51.226Z,21.83
2019-01-25T05:57:29.223Z,21.85
2019-01-25T05:59:55.881Z,21.90
2019-01-25T06:02:22.524Z,21.95
2019-01-25T06:04:49.180Z,22.03
2019-01-25T06:07:18.796Z,22.03
2019-01-25T06:09:45.637Z,22.12
2019-01-25T06:12:12.329Z,22.05
2019-01-25T06:14:39.014Z,22.17
2019-01-25T06:17:05.685Z,22.17
2019-01-25T06:19:32.325Z,22.08
2019-01-25T06:21:59.066Z,21.94
2019-01-25T06:24:25.731Z,22.11
2019-01-25T06:26:52.389Z,22.12
2019-01-25T06:29:19.249Z,22.05
2019-01-25T06:31:45.895Z,22.02
2019-01-25T06:34:12.560Z,22.07
2019-01-25T06:36:39.202Z,22.29
2019-01-25T06:39:05.869Z,22.24
2019-01-25T06:41:32.521Z,22.31
2019-01-25T06:43:59.196Z,22.33
2019-01-25T06:46:25.848Z,22.40
2019-01-25T06:48:52.499Z,22.37
2019-01-25T06:51:19.196Z,22.40
2019-01-25T06:53:45.847Z,22.35
2019-01-25T06:56:12.500Z,22.33
2019-01-25T06:58:39.197Z,22.35
2019-01-25T07:01:05.846Z,22.33
2019-01-25T07:03:32.483Z,22.46
2019-01-25T07:05:59.167Z,22.63
2019-01-25T07:08:25.809Z,22.51
2019-01-25T07:10:52.462Z,22.51
2019-01-25T07:13:19.115Z,22.49
2019-01-25T07:15:45.760Z,22.49
2019-01-25T07:18:12.549Z,22.40
2019-01-25T07:20:39.190Z,22.53
2019-01-25T07:23:05.842Z,22.68
2019-01-25T07:25:32.566Z,22.73
2019-01-25T07:27:59.188Z,22.85
2019-01-25T07:30:25.847Z,22.83
2019-01-25T07:32:52.928Z,22.83
2019-01-25T07:35:19.594Z,22.85
2019-01-25T07:37:46.310Z,22.91
2019-01-25T07:40:13.100Z,23.02
2019-01-25T07:42:42.278Z,23.01
2019-01-25T07:45:09.969Z,23.09
2019-01-25T07:47:36.722Z,22.92
2019-01-25T07:50:03.512Z,23.06
2019-01-25T07:52:30.260Z,23.14
2019-01-25T07:54:57.089Z,23.13
2019-01-25T07:57:23.922Z,23.23
2019-01-25T07:59:50.593Z,23.22
2019-01-25T08:02:17.302Z,23.47
2019-01-25T08:04:44.000Z,23.60
2019-01-25T08:07:10.667Z,23.44
2019-01-25T08:09:37.341Z,23.54
2019-01-25T08:12:07.616Z,23.43
2019-01-25T08:14:30.664Z,23.58
2019-01-25T08:16:57.397Z,23.70
2019-01-25T08:19:24.042Z,23.78
2019-01-25T08:21:50.698Z,23.72
2019-01-25T08:24:17.432Z,23.79
2019-01-25T08:26:44.085Z,23.93
2019-01-25T08:29:10.739Z,23.97
2019-01-25T08:31:37.410Z,24.10
2019-01-25T08:34:04.110Z,24.15
2019-01-25T08:36:30.787Z,24.23
2019-01-25T08:38:57.546Z,24.22
2019-01-25T08:41:24.214Z,24.29
2019-01-25T08:43:50.829Z,24.16
2019-01-25T08:46:17.623Z,24.33
2019-01-25T08:48:44.246Z,24.47
2019-01-25T08:51:11.324Z,24.47
2019-01-25T08:53:37.721Z,24.78
2019-01-25T08:56:04.555Z,24.73
2019-01-25T08:58:31.097Z,24.78
2019-01-25T09:00:57.868Z,24.80
2019-01-25T09:03:24.514Z,24.92
2019-01-25T09:05:54.297Z,24.99
2019-01-25T09:08:21.525Z,24.86
2019-01-25T09:10:48.167Z,25.07
2019-01-25T09:13:14.907Z,24.89
2019-01-25T09:15:41.550Z,25.07
2019-01-25T09:18:08.210Z,25.12
2019-01-25T09:20:34.849Z,25.24
2019-01-25T09:23:01.505Z,25.16
2019-01-25T09:25:29.225Z,25.23
2019-01-25T09:27:55.970Z,25.19
2019-01-25T09:30:22.635Z,24.94
2019-01-25T09:32:49.289Z,25.11
2019-01-25T09:35:15.960Z,24.98
2019-01-25T09:37:42.616Z,25.11
2019-01-25T09:40:09.287Z,25.05
2019-01-25T09:42:35.937Z,25.07
2019-01-25T09:45:02.575Z,25.08
2019-01-25T09:47:29.224Z,24.97
2019-01-25T09:49:55.974Z,24.88
2019-01-25T09:52:22.615Z,24.84
2019-01-25T09:54:49.270Z,24.94
2019-01-25T09:57:15.920Z,24.84
2019-01-25T09:59:42.569Z,24.94
2019-01-25T10:02:09.216Z,24.93
2019-01-25T10:04:35.883Z,24.98
2019-01-25T10:07:02.531Z,25.00
2019-01-25T10:09:29.208Z,24.87
2019-01-25T10:11:55.864Z,24.90
2019-01-25T10:14:22.540Z,24.98
2019-01-25T10:16:49.196Z,24.98
2019-01-25T10:19:15.854Z,24.99
2019-01-25T10:21:42.503Z,24.83
2019-01-25T10:24:09.177Z,24.92
2019-01-25T10:26:38.172Z,24.87
2019-01-25T10:29:04.829Z,24.80
2019-01-25T10:31:31.507Z,25.01
2019-01-25T10:33:58.115Z,25.14
2019-01-25T10:36:24.784Z,25.32
2019-01-25T10:38:51.436Z,25.46
2019-01-25T10:41:19.487Z,25.32
2019-01-25T10:43:44.804Z,25.47
2019-01-25T10:46:11.466Z,25.63
2019-01-25T10:48:38.157Z,25.50
2019-01-25T10:51:04.840Z,25.51
2019-01-25T10:53:31.539Z,25.36
2019-01-25T10:55:58.289Z,25.44
2019-01-25T10:58:25.037Z,25.37
2019-01-25T11:00:51.694Z,25.55
2019-01-25T11:03:18.431Z,25.38
2019-01-25T11:05:45.159Z,25.45
2019-01-25T11:08:11.859Z,25.27
2019-01-25T11:10:38.532Z,25.30
2019-01-25T11:13:05.281Z,25.18
2019-01-25T11:15:32.011Z,25.22
2019-01-25T11:17:58.673Z,25.20
2019-01-25T11:20:25.331Z,25.42
2019-01-25T11:22:52.023Z,25.27
2019-01-25T11:25:18.675Z,25.32
2019-01-25T11:27:45.391Z,25.42
2019-01-25T11:30:12.030Z,25.42
2019-01-25T11:32:38.785Z,25.59
2019-01-25T11:35:05.433Z,25.66
2019-01-25T11:37:32.149Z,25.80
2019-01-25T11:39:58.818Z,25.85
2019-01-25T11:42:25.649Z,26.09
2019-01-25T11:44:52.354Z,25.83
2019-01-25T11:47:19.035Z,26.10
2019-01-25T11:49:45.723Z,26.25
2019-01-25T11:52:12.400Z,26.24
2019-01-25T11:54:39.064Z,26.04
2019-01-25T11:57:05.844Z,26.32
2019-01-25T11:59:32.453Z,26.33
2019-01-25T12:01:59.106Z,26.46
2019-01-25T12:04:25.834Z,26.35
2019-01-25T12:06:52.494Z,26.45
2019-01-25T12:09:19.208Z,26.21
2019-01-25T12:11:45.888Z,26.62
2019-01-25T12:14:12.552Z,26.46
2019-01-25T12:16:39.205Z,26.63
2019-01-25T12:19:05.844Z,26.74
2019-01-25T12:21:32.498Z,27.14
2019-01-25T12:23:59.147Z,26.89
2019-01-25T12:26:25.925Z,27.08
2019-01-25T12:28:52.666Z,27.19
2019-01-25T12:31:19.545Z,27.21
2019-01-25T12:33:46.249Z,27.07
2019-01-25T12:36:12.952Z,26.74
2019-01-25T12:38:39.658Z,27.17
2019-01-25T12:41:06.322Z,27.03
2019-01-25T12:43:35.280Z,27.16
2019-01-25T12:46:01.824Z,27.43
2019-01-25T12:48:31.262Z,27.38
2019-01-25T12:50:58.099Z,27.51
2019-01-25T12:53:24.886Z,27.16
2019-01-25T12:55:51.730Z,27.18
2019-01-25T12:58:18.393Z,27.47
2019-01-25T13:00:45.038Z,27.54
2019-01-25T13:03:11.736Z,27.53
2019-01-25T13:05:38.425Z,27.71
2019-01-25T13:08:05.112Z,27.59
2019-01-25T13:10:31.861Z,27.37
2019-01-25T13:12:58.605Z,27.18
2019-01-25T13:15:26.013Z,27.32
2019-01-25T13:17:52.808Z,27.44
2019-01-25T13:20:19.547Z,27.55
2019-01-25T13:22:48.528Z,27.52
2019-01-25T13:25:15.280Z,27.57
2019-01-25T13:27:42.120Z,27.46
2019-01-25T13:30:08.821Z,27.42
2019-01-25T13:32:36.001Z,27.27
2019-01-25T13:35:02.766Z,27.47
2019-01-25T13:37:31.540Z,27.50
2019-01-25T13:39:56.089Z,27.41
2019-01-25T13:42:22.748Z,27.36
2019-01-25T13:44:49.415Z,27.39
2019-01-25T13:47:16.105Z,27.39
2019-01-25T13:49:42.793Z,27.36
2019-01-25T13:52:09.455Z,27.24
2019-01-25T13:54:36.092Z,27.41
2019-01-25T13:57:02.886Z,27.45
2019-01-25T13:59:29.628Z,27.43
2019-01-25T14:01:56.326Z,27.65
2019-01-25T14:04:22.980Z,27.47
2019-01-25T14:06:49.636Z,27.56
2019-01-25T14:09:16.962Z,27.61
2019-01-25T14:11:42.953Z,27.41
2019-01-25T14:14:09.632Z,27.71
2019-01-25T14:16:36.330Z,27.83
2019-01-25T14:19:02.997Z,27.87
2019-01-25T14:21:29.749Z,27.77
2019-01-25T14:23:56.487Z,27.69
2019-01-25T14:26:23.145Z,27.80
2019-01-25T14:28:50.234Z,27.79
2019-01-25T14:31:16.869Z,27.71
2019-01-25T14:33:43.529Z,27.69
2019-01-25T14:36:10.278Z,27.78
2019-01-25T14:38:36.948Z,27.80
2019-01-25T14:41:03.624Z,27.79
2019-01-25T14:43:30.280Z,27.76
2019-01-25T14:45:56.929Z,27.81
2019-01-25T14:48:23.669Z,27.69
2019-01-25T14:50:50.337Z,27.81
2019-01-25T14:53:17.194Z,27.49
2019-01-25T14:55:43.928Z,27.56
2019-01-25T14:58:10.582Z,27.57
2019-01-25T15:00:37.253Z,27.68
2019-01-25T15:03:03.896Z,27.79
2019-01-25T15:05:32.873Z,27.68
2019-01-25T15:07:59.509Z,27.59
2019-01-25T15:10:26.252Z,27.74
2019-01-25T15:12:52.936Z,27.71
2019-01-25T15:15:19.591Z,27.72
2019-01-25T15:17:46.281Z,27.66
2019-01-25T15:20:13.006Z,27.69
2019-01-25T15:22:39.658Z,27.49
2019-01-25T15:25:06.297Z,27.73
2019-01-25T15:27:32.957Z,27.50
2019-01-25T15:29:59.615Z,27.47
2019-01-25T15:32:26.319Z,27.25
2019-01-25T15:34:52.964Z,27.34
2019-01-25T15:37:19.637Z,27.34
2019-01-25T15:39:46.283Z,27.20
2019-01-25T15:42:12.928Z,27.20
2019-01-25T15:44:39.584Z,27.16
2019-01-25T15:47:06.234Z,27.14
2019-01-25T15:49:32.888Z,27.15
2019-01-25T15:51:59.524Z,26.91
2019-01-25T15:54:26.182Z,27.01
2019-01-25T15:56:52.902Z,27.02
2019-01-25T15:59:19.544Z,27.03
2019-01-25T16:01:46.208Z,26.97
2019-01-25T16:04:12.857Z,26.92
2019-01-25T16:06:39.493Z,26.79
2019-01-25T16:09:06.152Z,26.74
2019-01-25T16:11:34.323Z,26.69
2019-01-25T16:13:59.454Z,26.65
2019-01-25T16:16:26.198Z,26.66
2019-01-25T16:18:52.935Z,26.59
2019-01-25T16:21:19.585Z,26.39
2019-01-25T16:23:46.229Z,26.31
2019-01-25T16:26:12.874Z,26.51
2019-01-25T16:28:39.540Z,26.43
2019-01-25T16:31:06.200Z,26.51
2019-01-25T16:33:33.218Z,26.43
2019-01-25T16:35:59.862Z,26.40
2019-01-25T16:38:26.501Z,26.34
2019-01-25T16:40:53.163Z,26.26
2019-01-25T16:43:19.845Z,26.25
2019-01-25T16:45:46.506Z,26.21
2019-01-25T16:48:13.146Z,26.21
2019-01-25T16:50:39.993Z,26.14
2019-01-25T16:53:06.437Z,26.10
2019-01-25T16:55:33.081Z,25.99
2019-01-25T16:57:59.734Z,26.00
2019-01-25T17:00:26.369Z,25.96
2019-01-25T17:02:53.044Z,25.89
2019-01-25T17:05:19.685Z,25.88
2019-01-25T17:07:46.365Z,25.84
2019-01-25T17:10:13.004Z,25.80
2019-01-25T17:12:39.668Z,25.73
2019-01-25T17:15:06.325Z,25.71
2019-01-25T17:17:32.972Z,25.69
2019-01-25T17:19:59.620Z,25.61
2019-01-25T17:22:26.271Z,25.63
2019-01-25T17:24:52.923Z,25.63
2019-01-25T17:27:19.558Z,25.52
2019-01-25T17:29:46.259Z,25.54
2019-01-25T17:32:12.900Z,25.46
2019-01-25T17:34:39.563Z,25.41
2019-01-25T17:37:06.207Z,25.41
2019-01-25T17:39:32.893Z,25.37
2019-01-25T17:41:59.520Z,25.34
2019-01-25T17:44:26.411Z,25.30
2019-01-25T17:46:53.084Z,25.33
2019-01-25T17:49:19.739Z,25.28
2019-01-25T17:51:46.374Z,25.19
2019-01-25T17:54:13.025Z,25.05
2019-01-25T17:56:39.667Z,25.26
2019-01-25T17:59:06.347Z,25.19
2019-01-25T18:01:33.027Z,25.19
2019-01-25T18:03:59.679Z,25.12
2019-01-25T18:06:26.331Z,25.15
2019-01-25T18:08:52.968Z,25.06
2019-01-25T18:11:19.771Z,25.07
2019-01-25T18:13:46.412Z,24.99
2019-01-25T18:16:13.119Z,24.96
2019-01-25T18:18:39.773Z,24.92
2019-01-25T18:21:06.466Z,24.93
2019-01-25T18:23:33.104Z,24.88
2019-01-25T18:25:59.745Z,24.92
2019-01-25T18:28:26.463Z,24.86
2019-01-25T18:30:53.100Z,24.87
2019-01-25T18:33:19.737Z,24.80
2019-01-25T18:35:46.411Z,24.74
2019-01-25T18:38:13.073Z,24.73
2019-01-25T18:40:39.725Z,24.72
2019-01-25T18:43:06.417Z,24.64
2019-01-25T18:45:33.059Z,24.62
2019-01-25T18:47:59.718Z,24.58
2019-01-25T18:50:26.371Z,24.58
2019-01-25T18:52:53.010Z,24.60
2019-01-25T18:55:19.663Z,24.68
2019-01-25T18:57:46.370Z,24.72
2019-01-25T19:00:13.026Z,24.71
2019-01-25T19:02:39.677Z,24.75
2019-01-25T19:05:06.334Z,24.83
2019-01-25T19:07:32.972Z,24.73
2019-01-25T19:09:59.656Z,24.63
2019-01-25T19:12:26.297Z,24.50
2019-01-25T19:14:52.940Z,24.44
2019-01-25T19:17:19.671Z,24.40
2019-01-25T19:19:46.358Z,24.38
2019-01-25T19:22:13.001Z,24.29
2019-01-25T19:24:39.669Z,24.27
2019-01-25T19:27:06.305Z,24.20
2019-01-25T19:29:32.968Z,24.14
2019-01-25T19:31:59.629Z,24.11
2019-01-25T19:34:26.317Z,24.08
2019-01-25T19:36:52.958Z,24.04
2019-01-25T19:39:19.617Z,23.98
2019-01-25T19:41:46.257Z,24.02
2019-01-25T19:44:12.898Z,23.95
2019-01-25T19:46:39.542Z,24.02
2019-01-25T19:49:06.202Z,23.97
2019-01-25T19:51:32.841Z,23.97
2019-01-25T19:53:59.538Z,23.92
2019-01-25T19:56:26.182Z,23.92
2019-01-25T19:58:52.819Z,23.94
2019-01-25T20:01:19.474Z,23.90
2019-01-25T20:03:46.161Z,23.87
2019-01-25T20:06:12.802Z,23.90
2019-01-25T20:08:39.448Z,23.86
2019-01-25T20:11:06.096Z,23.85
2019-01-25T20:13:32.749Z,23.82
2019-01-25T20:15:59.386Z,23.80
2019-01-25T20:18:26.060Z,23.80
2019-01-25T20:20:52.700Z,23.81
2019-01-25T20:23:19.343Z,23.78
2019-01-25T20:25:45.993Z,23.75
2019-01-25T20:28:12.650Z,23.74
2019-01-25T20:30:39.300Z,23.71
2019-01-25T20:33:05.964Z,23.64
2019-01-25T20:35:32.598Z,23.68
2019-01-25T20:37:59.286Z,23.58
2019-01-25T20:40:25.929Z,23.62
2019-01-25T20:42:52.573Z,23.61
2019-01-25T20:45:19.210Z,23.60
2019-01-25T20:47:45.857Z,23.57
2019-01-25T20:50:12.531Z,23.52
2019-01-25T20:52:39.170Z,23.52
2019-01-25T20:55:05.851Z,23.52
2019-01-25T20:57:32.528Z,23.48
2019-01-25T20:59:59.178Z,23.46
2019-01-25T21:02:25.811Z,23.40
2019-01-25T21:04:52.500Z,23.40
2019-01-25T21:07:19.160Z,23.39
2019-01-25T21:09:45.798Z,23.37
2019-01-25T21:12:12.482Z,23.40
2019-01-25T21:14:39.132Z,23.35
2019-01-25T21:17:05.838Z,23.33
2019-01-25T21:19:32.482Z,23.28
2019-01-25T21:21:59.121Z,23.28
2019-01-25T21:24:25.801Z,23.31
2019-01-25T21:26:52.484Z,23.26
2019-01-25T21:29:19.128Z,23.23
2019-01-25T21:31:49.188Z,23.19
2019-01-25T21:34:15.847Z,23.23
2019-01-25T21:36:42.540Z,23.24
2019-01-25T21:39:09.179Z,23.16
2019-01-25T21:41:35.830Z,23.13
2019-01-25T21:44:02.467Z,23.12
2019-01-25T21:46:29.123Z,23.10
2019-01-25T21:48:55.781Z,23.08
2019-01-25T21:51:22.450Z,23.02
2019-01-25T21:53:49.126Z,23.06
2019-01-25T21:56:15.794Z,23.02
2019-01-25T21:58:42.477Z,23.01
2019-01-25T22:01:09.117Z,22.97
2019-01-25T22:03:35.827Z,22.96
2019-01-25T22:06:02.513Z,22.93
2019-01-25T22:08:29.176Z,22.86
2019-01-25T22:10:55.869Z,22.90
2019-01-25T22:13:22.549Z,22.85
2019-01-25T22:15:51.139Z,22.88
2019-01-25T22:18:15.892Z,22.91
2019-01-25T22:20:42.552Z,22.90
2019-01-25T22:23:09.237Z,22.84
2019-01-25T22:25:35.893Z,22.82
2019-01-25T22:28:02.542Z,22.85
2019-01-25T22:30:29.188Z,22.82
2019-01-25T22:32:55.825Z,22.78
2019-01-25T22:35:22.483Z,22.74
2019-01-25T22:37:49.116Z,22.75
2019-01-25T22:40:15.769Z,22.76
2019-01-25T22:42:42.408Z,22.73
2019-01-25T22:45:09.099Z,22.65
2019-01-25T22:47:35.739Z,22.67
2019-01-25T22:50:02.400Z,22.72
2019-01-25T22:52:29.046Z,22.67
2019-01-25T22:54:55.699Z,22.67
2019-01-25T22:57:22.341Z,22.67
2019-01-25T22:59:49.075Z,22.64
2019-01-25T23:02:15.759Z,22.59
2019-01-25T23:04:42.405Z,22.62
2019-01-25T23:07:09.045Z,22.64
2019-01-25T23:09:35.848Z,22.66
2019-01-25T23:12:02.480Z,22.56
2019-01-25T23:14:29.121Z,22.57
2019-01-25T23:16:55.786Z,22.62
2019-01-25T23:19:22.436Z,22.60
2019-01-25T23:21:50.315Z,22.55
2019-01-25T23:24:15.760Z,22.52
2019-01-25T23:26:42.398Z,22.45
2019-01-25T23:29:09.056Z,22.48
2019-01-25T23:31:35.747Z,22.47
2019-01-25T23:34:02.424Z,22.45
2019-01-25T23:36:29.064Z,22.40
2019-01-25T23:38:55.714Z,22.40
2019-01-25T23:41:22.369Z,22.43
2019-01-25T23:43:49.019Z,22.44
2019-01-25T23:46:15.665Z,22.39
2019-01-25T23:48:42.316Z,22.33
2019-01-25T23:51:08.960Z,22.34
2019-01-25T23:53:35.604Z,22.35
2019-01-25T23:56:02.295Z,22.36
2019-01-25T23:58:28.939Z,22.33
